Time;durP1;ratioP1;P1;durP2;ratioP2;P2;SDS_P1;SDS_P2;PMS_P1;PMS_P2;Temp;Humidity;BMP_temperature;BMP_pressure;BME280_temperature;BME280_humidity;BME280_pressure;Samples;Min_cycle;Max_cycle;Signal;HPM_P1;HPM_P2
2021/04/15 00:00:20;;;;;;;4.23;3.87;;;;;;;1.37;83.74;101818.91;5000237;28;20419;-79
2021/04/15 00:02:47;;;;;;;4.93;4.47;;;;;;;1.32;84.00;101813.53;4998302;28;20262;-79
2021/04/15 00:05:22;;;;;;;5.07;4.60;;;;;;;1.20;84.44;101820.75;5000225;28;20207;-79
2021/04/15 00:07:48;;;;;;;5.97;5.43;;;;;;;1.19;84.84;101821.59;4999036;28;20211;-79
2021/04/15 00:10:14;;;;;;;5.10;4.60;;;;;;;1.17;85.19;101825.81;4999276;28;20231;-80
2021/04/15 00:12:41;;;;;;;5.23;4.83;;;;;;;1.09;85.20;101822.91;4997834;28;20246;-79
2021/04/15 00:15:09;;;;;;;4.60;4.23;;;;;;;1.01;85.14;101828.50;4999576;28;20200;-79
2021/04/15 00:17:36;;;;;;;5.97;5.37;;;;;;;0.89;86.40;101819.50;4999463;28;20238;-80
2021/04/15 00:20:05;;;;;;;5.93;5.33;;;;;;;0.82;86.50;101820.03;4998605;28;20208;-78
2021/04/15 00:22:31;;;;;;;6.00;5.43;;;;;;;0.82;87.09;101821.72;4997776;28;20239;-79
2021/04/15 00:24:59;;;;;;;5.87;4.90;;;;;;;0.86;86.82;101818.47;4998798;28;20295;-79
2021/04/15 00:27:24;;;;;;;5.43;4.93;;;;;;;0.79;87.10;101818.22;4998751;28;20207;-79
2021/04/15 00:29:50;;;;;;;6.43;5.83;;;;;;;0.80;87.39;101824.22;4999783;28;20307;-78
2021/04/15 00:32:16;;;;;;;6.10;5.47;;;;;;;0.78;87.44;101813.00;4999712;28;20238;-80
2021/04/15 00:34:42;;;;;;;8.87;6.10;;;;;;;0.78;87.84;101816.44;5000228;28;20246;-79
2021/04/15 00:37:09;;;;;;;6.30;5.80;;;;;;;0.77;87.55;101817.28;4997152;28;20211;-78
2021/04/15 00:39:35;;;;;;;6.37;5.77;;;;;;;0.79;87.80;101810.50;4999985;28;20211;-79
2021/04/15 00:42:01;;;;;;;5.93;5.43;;;;;;;0.74;87.64;101816.25;4994072;28;20512;-78
2021/04/15 00:44:26;;;;;;;7.97;5.70;;;;;;;0.72;87.63;101805.91;4993913;28;20215;-79
2021/04/15 00:46:57;;;;;;;6.17;5.67;;;;;;;0.84;87.52;101813.25;4994395;28;20234;-78
2021/04/15 00:49:29;;;;;;;5.50;5.00;;;;;;;0.83;87.52;101808.91;4994491;28;20944;-78
2021/04/15 00:51:59;;;;;;;6.67;6.07;;;;;;;0.90;87.00;101812.66;4993724;28;20236;-79
2021/04/15 00:54:36;;;;;;;6.23;5.73;;;;;;;0.91;87.19;101819.53;4994177;28;20201;-78
2021/04/15 00:57:06;;;;;;;5.80;5.27;;;;;;;1.01;87.16;101815.66;4993553;28;20207;-78
2021/04/15 00:59:33;;;;;;;5.83;5.33;;;;;;;0.99;86.55;101810.44;4994085;28;20203;-78
2021/04/15 01:01:58;;;;;;;5.77;5.27;;;;;;;1.05;86.99;101812.41;4992528;28;20227;-78
2021/04/15 01:04:24;;;;;;;6.10;5.60;;;;;;;1.10;86.77;101818.63;4993877;28;20223;-78
2021/04/15 01:06:50;;;;;;;6.57;6.03;;;;;;;1.08;86.37;101808.28;4993936;28;20235;-78
2021/04/15 01:09:17;;;;;;;6.33;5.77;;;;;;;1.11;86.28;101817.78;4993849;28;20208;-78
2021/04/15 01:11:57;;;;;;;6.03;5.47;;;;;;;1.12;86.44;101817.88;4993177;28;20231;-79
2021/04/15 01:14:37;;;;;;;6.53;6.03;;;;;;;1.13;86.48;101811.94;4994123;28;20203;-79
2021/04/15 01:17:07;;;;;;;6.70;6.20;;;;;;;1.18;86.39;101804.41;4993844;28;20501;-79
2021/04/15 01:20:06;;;;;;;6.03;5.47;;;;;;;1.16;86.04;101806.91;4993948;28;20412;-78
2021/04/15 01:22:53;;;;;;;6.50;5.90;;;;;;;1.10;86.78;101800.63;4993795;28;20416;-78
2021/04/15 01:25:33;;;;;;;7.03;6.33;;;;;;;1.08;86.64;101807.41;4994575;28;20219;-78
2021/04/15 01:28:09;;;;;;;6.73;6.23;;;;;;;1.08;86.62;101805.69;4995374;28;20280;-79
2021/04/15 01:30:40;;;;;;;7.30;6.50;;;;;;;1.15;86.62;101799.09;4996479;28;20222;-78
2021/04/15 01:33:13;;;;;;;6.50;6.07;;;;;;;1.13;86.67;101791.34;4994601;28;20461;-79
2021/04/15 01:35:45;;;;;;;6.90;6.40;;;;;;;1.11;86.41;101800.69;4996230;28;20224;-78
2021/04/15 01:38:16;;;;;;;8.17;6.60;;;;;;;1.12;86.69;101806.72;4994872;28;20215;-79
2021/04/15 01:40:47;;;;;;;7.57;6.97;;;;;;;1.10;86.99;101798.06;4997179;28;20208;-79
2021/04/15 01:43:18;;;;;;;7.50;6.77;;;;;;;1.12;86.66;101799.00;4994969;28;20262;-79
2021/04/15 01:45:47;;;;;;;6.80;6.23;;;;;;;1.06;86.71;101794.47;4996412;28;20214;-79
2021/04/15 01:48:16;;;;;;;8.10;7.20;;;;;;;1.05;87.05;101795.31;4994991;28;20212;-78
2021/04/15 01:50:47;;;;;;;7.27;6.40;;;;;;;1.05;86.71;101799.53;4996108;28;20208;-78
2021/04/15 01:53:18;;;;;;;7.93;7.23;;;;;;;1.06;86.64;101809.03;4995435;28;20694;-78
2021/04/15 01:55:50;;;;;;;7.87;7.27;;;;;;;0.93;86.43;101805.94;4994979;28;20210;-79
2021/04/15 01:58:21;;;;;;;7.63;6.83;;;;;;;1.00;87.09;101804.50;4995738;28;20213;-79
2021/04/15 02:00:51;;;;;;;8.00;7.20;;;;;;;1.01;86.82;101808.81;4996422;28;20238;-78
2021/04/15 02:03:23;;;;;;;7.83;6.97;;;;;;;1.07;86.20;101816.81;4995287;28;20232;-79
2021/04/15 02:05:55;;;;;;;7.77;7.13;;;;;;;0.95;86.46;101811.13;4995785;28;20579;-79
2021/04/15 02:08:25;;;;;;;8.53;7.73;;;;;;;0.95;86.92;101819.75;4995271;28;20209;-78
2021/04/15 02:10:57;;;;;;;7.33;6.73;;;;;;;0.99;86.29;101818.16;4997024;28;20208;-78
2021/04/15 02:13:25;;;;;;;8.97;8.17;;;;;;;0.86;86.81;101818.47;4995466;28;20726;-78
2021/04/15 02:15:57;;;;;;;8.70;7.87;;;;;;;0.85;86.98;101820.13;4999854;28;20223;-78
2021/04/15 02:18:28;;;;;;;9.00;8.10;;;;;;;0.83;87.53;101823.47;5000030;28;20226;-79
2021/04/15 02:21:00;;;;;;;8.97;8.10;;;;;;;0.75;86.96;101816.31;5001012;28;20218;-79
2021/04/15 02:23:31;;;;;;;8.17;7.37;;;;;;;0.77;87.88;101816.38;4998513;28;20234;-79
2021/04/15 02:26:02;;;;;;;12.23;8.97;;;;;;;0.77;88.40;101811.22;5000145;28;20205;-78
2021/04/15 02:28:34;;;;;;;10.17;9.27;;;;;;;0.81;87.89;101817.38;5000257;28;20212;-79
2021/04/15 02:31:08;;;;;;;12.57;11.43;;;;;;;0.84;88.10;101820.97;5000761;28;20687;-79
2021/04/15 02:33:42;;;;;;;8.50;7.73;;;;;;;0.84;87.83;101825.25;5000354;28;20239;-79
2021/04/15 02:36:10;;;;;;;8.43;7.63;;;;;;;0.87;87.62;101822.78;5001032;28;20211;-79
2021/04/15 02:38:45;;;;;;;9.83;8.93;;;;;;;0.85;87.90;101826.97;5001194;28;20205;-79
2021/04/15 02:41:16;;;;;;;10.40;9.57;;;;;;;0.85;88.41;101825.28;5001938;28;20207;-80
2021/04/15 02:43:45;;;;;;;13.27;9.73;;;;;;;0.80;88.28;101821.66;4999831;28;20896;-79
2021/04/15 02:46:15;;;;;;;10.97;9.63;;;;;;;0.77;88.35;101826.66;5002057;28;20750;-79
2021/04/15 02:48:44;;;;;;;10.53;9.57;;;;;;;0.76;87.80;101830.91;5000301;28;20990;-78
2021/04/15 02:51:13;;;;;;;10.90;9.87;;;;;;;0.77;88.62;101824.97;5001964;28;20828;-79
2021/04/15 02:53:45;;;;;;;11.03;10.17;;;;;;;0.73;88.94;101823.09;5001249;28;20648;-79
2021/04/15 02:56:17;;;;;;;10.57;9.67;;;;;;;0.74;88.37;101823.97;5001410;28;20223;-79
2021/04/15 02:58:47;;;;;;;12.17;11.03;;;;;;;0.74;88.65;101823.97;5001578;28;20204;-79
2021/04/15 03:01:17;;;;;;;11.50;10.50;;;;;;;0.79;89.25;101825.03;4996736;28;21476;-79
2021/04/15 03:03:49;;;;;;;11.67;10.67;;;;;;;0.77;88.64;101824.06;4996101;28;20215;-78
2021/04/15 03:06:17;;;;;;;10.90;8.80;;;;;;;0.79;88.41;101828.50;4996333;28;20211;-79
2021/04/15 03:08:45;;;;;;;10.67;9.77;;;;;;;0.80;88.24;101821.66;4995965;28;20216;-78
2021/04/15 03:11:18;;;;;;;12.77;10.47;;;;;;;0.71;88.77;101827.25;4998280;28;20212;-78
2021/04/15 03:13:48;;;;;;;10.87;9.87;;;;;;;0.61;88.73;101819.09;4998025;28;20286;-79
2021/04/15 03:16:18;;;;;;;12.27;11.03;;;;;;;0.55;89.61;101827.41;4999940;28;20200;-79
2021/04/15 03:18:49;;;;;;;12.37;11.10;;;;;;;0.53;90.02;101826.47;4997172;28;20233;-78
2021/04/15 03:21:20;;;;;;;13.33;12.07;;;;;;;0.51;89.88;101828.06;4998677;28;20211;-79
2021/04/15 03:23:50;;;;;;;12.40;11.30;;;;;;;0.48;89.71;101830.53;4996542;28;20710;-78
2021/04/15 03:26:27;;;;;;;12.27;10.43;;;;;;;0.41;90.21;101828.47;4997942;28;20429;-79
2021/04/15 03:29:03;;;;;;;13.43;12.07;;;;;;;0.38;90.24;101836.94;4997690;28;20207;-79
2021/04/15 03:31:32;;;;;;;11.73;10.63;;;;;;;0.39;89.92;101829.28;4999051;28;20239;-78
2021/04/15 03:34:05;;;;;;;13.47;11.00;;;;;;;0.44;89.82;101837.22;4999580;28;20212;-79
2021/04/15 03:36:36;;;;;;;12.63;11.33;;;;;;;0.43;89.95;101829.44;4999184;28;20246;-79
2021/04/15 03:39:08;;;;;;;14.10;12.80;;;;;;;0.36;90.17;101836.88;4999895;28;20460;-78
2021/04/15 03:41:38;;;;;;;13.70;12.07;;;;;;;0.29;90.22;101831.38;4998237;28;20294;-79
2021/04/15 03:44:09;;;;;;;11.43;10.43;;;;;;;0.24;90.30;101831.19;4998597;28;20781;-79
2021/04/15 03:46:42;;;;;;;13.67;12.30;;;;;;;0.19;90.73;101830.94;4999000;28;20204;-79
2021/04/15 03:49:15;;;;;;;13.80;12.40;;;;;;;0.18;90.74;101823.19;4998366;28;20208;-78
2021/04/15 03:51:44;;;;;;;13.17;11.23;;;;;;;0.14;90.68;101823.84;4998761;28;20411;-78
2021/04/15 03:54:14;;;;;;;18.07;13.60;;;;;;;0.16;91.30;101825.69;4997769;28;20453;-78
2021/04/15 03:56:43;;;;;;;13.80;12.23;;;;;;;0.19;90.98;101830.94;4998330;28;20659;-78
2021/04/15 03:59:15;;;;;;;12.80;11.50;;;;;;;0.24;90.72;101836.31;4998888;28;20210;-78
2021/04/15 04:01:46;;;;;;;14.50;13.07;;;;;;;0.21;91.12;101837.84;4998656;28;20502;-78
2021/04/15 04:04:25;;;;;;;13.73;12.30;;;;;;;0.20;90.39;101839.56;4998085;28;20243;-79
2021/04/15 04:06:53;;;;;;;13.63;12.27;;;;;;;0.28;90.88;101842.44;4997985;28;20207;-79
2021/04/15 04:09:23;;;;;;;15.70;13.33;;;;;;;0.20;90.93;101842.13;4998328;28;20212;-78
2021/04/15 04:11:52;;;;;;;13.83;12.53;;;;;;;0.20;90.78;101842.13;4997940;28;20239;-79
2021/04/15 04:14:24;;;;;;;14.77;13.20;;;;;;;0.16;91.00;101846.22;4997991;28;20200;-78
2021/04/15 04:16:56;;;;;;;16.70;13.67;;;;;;;0.13;90.95;101848.63;4998127;28;20211;-79
2021/04/15 04:19:27;;;;;;;18.80;13.73;;;;;;;0.06;91.29;101843.16;4998052;28;20211;-79
2021/04/15 04:22:00;;;;;;;15.00;13.47;;;;;;;0.05;91.21;101849.09;4998744;28;20291;-79
2021/04/15 04:24:36;;;;;;;13.93;12.57;;;;;;;0.00;91.31;101843.78;4997581;28;20572;-79
2021/04/15 04:27:09;;;;;;;15.00;13.40;;;;;;;0.02;91.25;101848.94;4996905;28;20215;-79
2021/04/15 04:29:45;;;;;;;15.23;13.73;;;;;;;-0.06;91.17;101849.50;4997417;28;20280;-79
2021/04/15 04:32:14;;;;;;;17.90;15.13;;;;;;;-0.14;91.23;101853.38;4997779;28;20305;-79
2021/04/15 04:34:42;;;;;;;15.90;14.40;;;;;;;-0.16;91.70;101857.53;4996793;28;20212;-79
2021/04/15 04:37:10;;;;;;;15.67;14.17;;;;;;;-0.18;91.51;101851.44;4997200;28;20207;-78
2021/04/15 04:39:38;;;;;;;17.87;16.00;;;;;;;-0.14;92.14;101857.63;4998512;28;20211;-78
2021/04/15 04:42:14;;;;;;;18.53;14.67;;;;;;;-0.12;92.05;101846.63;4997020;28;20226;-79
2021/04/15 04:44:42;;;;;;;19.00;15.83;;;;;;;-0.11;91.98;101862.91;4997163;28;20223;-79
2021/04/15 04:47:15;;;;;;;15.17;13.63;;;;;;;-0.11;91.74;101857.78;4997795;28;20695;-79
2021/04/15 04:49:44;;;;;;;16.37;14.37;;;;;;;-0.11;91.49;101862.91;4997723;28;20228;-79
2021/04/15 04:52:19;;;;;;;19.77;14.57;;;;;;;-0.03;91.57;101870.16;4998484;28;20298;-79
2021/04/15 04:54:45;;;;;;;13.17;11.87;;;;;;;0.12;91.48;101870.00;4999057;28;20225;-79
2021/04/15 04:57:16;;;;;;;13.57;12.20;;;;;;;0.13;90.51;101869.19;4999841;28;20226;-79
2021/04/15 04:59:45;;;;;;;15.03;13.67;;;;;;;0.09;90.41;101869.84;5000331;28;20219;-79
2021/04/15 05:02:14;;;;;;;15.23;13.53;;;;;;;0.11;90.38;101877.63;4996966;28;20233;-78
2021/04/15 05:04:42;;;;;;;15.20;13.60;;;;;;;0.16;90.59;101871.91;4992245;28;20215;-78
2021/04/15 05:07:16;;;;;;;16.07;14.57;;;;;;;0.26;90.61;101880.00;4991413;28;20200;-78
2021/04/15 05:09:44;;;;;;;16.30;14.37;;;;;;;0.22;90.57;101879.03;4992929;28;20217;-79
2021/04/15 05:12:14;;;;;;;16.27;14.77;;;;;;;0.17;90.42;101885.63;4990591;28;20232;-79
2021/04/15 05:14:41;;;;;;;14.87;13.50;;;;;;;0.17;90.39;101878.78;4992297;28;20209;-80
2021/04/15 05:17:24;;;;;;;15.57;14.00;;;;;;;0.19;90.44;101881.44;4992181;28;20239;-79
2021/04/15 05:19:51;;;;;;;14.60;13.10;;;;;;;0.22;90.46;101880.69;4992219;28;20207;-79
2021/04/15 05:22:25;;;;;;;14.67;13.23;;;;;;;0.20;90.29;101888.34;4992401;28;20231;-79
2021/04/15 05:24:56;;;;;;;16.70;13.77;;;;;;;0.19;90.23;101892.56;4991769;28;20215;-78
2021/04/15 05:27:24;;;;;;;14.87;13.50;;;;;;;0.17;90.27;101895.88;4990910;28;20699;-78
2021/04/15 05:30:02;;;;;;;15.20;13.90;;;;;;;0.21;90.43;101896.91;4993005;28;20690;-78
2021/04/15 05:32:29;;;;;;;15.80;14.00;;;;;;;0.16;90.70;101900.16;4991910;28;20232;-78
2021/04/15 05:34:58;;;;;;;15.97;14.23;;;;;;;0.11;90.79;101899.03;4992582;28;20211;-78
2021/04/15 05:37:27;;;;;;;16.57;15.03;;;;;;;0.04;91.11;101901.25;4991250;28;20230;-78
2021/04/15 05:39:54;;;;;;;16.77;15.13;;;;;;;0.05;91.22;101908.16;4992955;28;20217;-78
2021/04/15 05:42:27;;;;;;;17.20;15.40;;;;;;;0.01;90.98;101913.94;4990737;28;20224;-78
2021/04/15 05:44:55;;;;;;;17.03;15.43;;;;;;;0.00;91.30;101907.94;4992079;28;20215;-78
2021/04/15 05:47:27;;;;;;;18.70;15.67;;;;;;;-0.06;91.32;101910.19;4992853;28;20208;-79
2021/04/15 05:49:58;;;;;;;20.80;17.03;;;;;;;-0.06;91.58;101907.63;4995725;28;20211;-78
2021/04/15 05:52:28;;;;;;;21.53;17.73;;;;;;;-0.06;92.06;101911.09;4996970;28;20236;-79
2021/04/15 05:54:59;;;;;;;19.13;17.30;;;;;;;0.01;92.33;101913.94;4996526;28;20212;-79
2021/04/15 05:57:29;;;;;;;21.47;17.00;;;;;;;0.05;92.18;101911.59;4996313;28;20208;-79
2021/04/15 06:00:06;;;;;;;26.00;16.83;;;;;;;0.08;91.72;101924.59;4996195;28;20218;-79
2021/04/15 06:02:43;;;;;;;19.17;17.20;;;;;;;0.23;91.50;101920.97;4993407;28;20259;-79
2021/04/15 06:05:16;;;;;;;16.90;15.30;;;;;;;0.22;91.82;101927.81;4995873;28;20207;-78
2021/04/15 06:07:44;;;;;;;25.50;17.27;;;;;;;0.17;91.59;101921.56;4998118;28;20298;-78
2021/04/15 06:10:13;;;;;;;18.53;16.63;;;;;;;0.12;91.58;101921.34;5001575;28;20209;-79
2021/04/15 06:12:48;;;;;;;18.23;16.43;;;;;;;0.10;92.02;101922.06;4998439;28;20239;-78
2021/04/15 06:15:18;;;;;;;19.63;17.17;;;;;;;0.11;91.94;101929.84;5001576;28;20207;-78
2021/04/15 06:17:50;;;;;;;18.90;17.07;;;;;;;0.16;92.30;101922.38;5000011;28;20258;-79
2021/04/15 06:20:22;;;;;;;18.20;16.60;;;;;;;0.21;92.00;101915.75;4999711;28;20215;-80
2021/04/15 06:22:52;;;;;;;18.60;16.90;;;;;;;0.19;91.52;101925.06;4999717;28;20232;-79
2021/04/15 06:25:21;;;;;;;18.87;16.37;;;;;;;0.25;91.99;101935.63;4998767;28;20208;-79
2021/04/15 06:27:48;;;;;;;19.40;17.50;;;;;;;0.32;91.95;101935.13;4998940;28;20423;-79
2021/04/15 06:30:20;;;;;;;19.43;17.57;;;;;;;0.41;91.87;101934.66;4995745;28;20272;-78
2021/04/15 06:32:53;;;;;;;18.23;16.53;;;;;;;0.55;91.16;101932.72;4996669;28;20393;-79
2021/04/15 06:35:23;;;;;;;17.03;15.43;;;;;;;0.58;90.99;101936.34;4995779;28;20203;-79
2021/04/15 06:37:53;;;;;;;16.67;15.27;;;;;;;0.78;91.00;101942.38;4993992;28;20207;-78
2021/04/15 06:40:52;;;;;;;15.73;14.50;;;;;;;0.92;90.49;101943.00;4995286;28;20214;-78
2021/04/15 06:44:00;;;;;;;16.27;14.67;;;;;;;1.15;89.95;101944.03;4960056;28;20223;-79
2021/04/15 06:46:41;;;;;;;16.10;14.63;;;;;;;1.06;89.07;101937.59;4966588;28;20204;-78
2021/04/15 06:49:24;;;;;;;19.23;15.20;;;;;;;1.08;89.32;101941.13;4992633;28;20204;-79
2021/04/15 06:51:57;;;;;;;17.30;15.63;;;;;;;1.09;89.74;101938.63;4991698;28;20224;-79
2021/04/15 06:54:38;;;;;;;20.80;17.27;;;;;;;1.24;89.64;101937.50;4988603;28;20291;-79
2021/04/15 06:57:13;;;;;;;22.87;15.80;;;;;;;1.52;89.12;101939.56;4991598;28;20243;-79
2021/04/15 06:59:53;;;;;;;16.97;15.17;;;;;;;1.63;88.55;101940.03;4991977;28;20208;-80
2021/04/15 07:02:37;;;;;;;17.40;15.40;;;;;;;1.55;88.22;101939.72;4992421;28;20227;-79
2021/04/15 07:05:06;;;;;;;18.47;16.67;;;;;;;1.41;88.65;101940.78;4995486;28;20213;-79
2021/04/15 07:07:37;;;;;;;18.00;16.37;;;;;;;1.46;88.19;101939.31;4996949;28;20204;-80
2021/04/15 07:10:43;;;;;;;18.30;16.50;;;;;;;1.57;88.67;101940.66;4998110;28;20226;-79
2021/04/15 07:13:33;;;;;;;17.97;15.77;;;;;;;1.48;88.15;101941.13;4963821;28;20237;-80
2021/04/15 07:16:46;;;;;;;23.10;16.57;;;;;;;1.50;88.31;101942.06;4994536;28;20901;-79
2021/04/15 07:19:50;;;;;;;17.57;15.87;;;;;;;1.79;88.02;101933.00;4933287;28;20213;-78
2021/04/15 07:22:39;;;;;;;17.50;15.77;;;;;;;2.01;87.15;101930.44;4990739;28;20227;-79
2021/04/15 07:25:18;;;;;;;16.23;14.93;;;;;;;1.85;86.66;101934.94;4993777;28;20230;-79
2021/04/15 07:28:03;;;;;;;19.97;18.00;;;;;;;1.80;87.93;101936.44;4991630;28;20705;-80
2021/04/15 07:30:56;;;;;;;17.57;15.77;;;;;;;1.90;88.09;101940.28;4997109;28;20418;-78
2021/04/15 07:33:33;;;;;;;16.67;14.93;;;;;;;2.09;87.00;101944.47;4986697;28;20283;-77
2021/04/15 07:36:40;;;;;;;15.23;13.80;;;;;;;2.38;86.86;101954.25;4985651;28;20214;-77
2021/04/15 07:39:25;;;;;;;14.40;13.10;;;;;;;2.50;84.28;101947.81;4982113;28;20207;-78
2021/04/15 07:42:06;;;;;;;15.23;13.77;;;;;;;2.67;84.18;101946.72;4985002;28;20720;-77
2021/04/15 07:44:37;;;;;;;14.37;12.87;;;;;;;2.77;84.51;101943.69;4986814;28;20214;-77
2021/04/15 07:47:26;;;;;;;14.70;13.33;;;;;;;2.65;84.70;101948.38;4986149;28;20202;-77
2021/04/15 07:50:23;;;;;;;16.07;14.40;;;;;;;2.71;85.26;101946.03;4966880;28;20252;-78
2021/04/15 07:53:13;;;;;;;15.57;14.03;;;;;;;2.92;84.97;101948.53;4985758;28;20239;-78
2021/04/15 07:56:18;;;;;;;14.50;13.10;;;;;;;3.01;83.65;101947.09;4986363;28;20222;-77
2021/04/15 07:59:03;;;;;;;13.70;12.43;;;;;;;3.03;83.78;101945.47;4962610;28;20263;-78
2021/04/15 08:01:45;;;;;;;15.10;13.60;;;;;;;3.20;82.98;101940.91;4987046;28;20209;-77
2021/04/15 08:04:45;;;;;;;13.97;12.47;;;;;;;3.32;83.67;101949.09;4986832;28;20210;-77
2021/04/15 08:07:41;;;;;;;13.83;12.60;;;;;;;3.38;82.67;101946.72;4982197;28;20209;-78
2021/04/15 08:10:49;;;;;;;11.93;10.73;;;;;;;3.53;81.20;101948.97;4988462;28;20712;-78
2021/04/15 08:13:47;;;;;;;12.10;11.10;;;;;;;3.57;80.64;101946.53;4969092;28;20317;-79
2021/04/15 08:16:51;;;;;;;15.13;13.63;;;;;;;3.75;79.43;101945.41;4985949;28;20457;-78
2021/04/15 08:19:46;;;;;;;11.20;10.20;;;;;;;3.95;79.72;101940.88;4988846;28;20245;-78
2021/04/15 08:22:19;;;;;;;12.20;11.17;;;;;;;4.06;79.65;101941.22;4988078;28;20243;-78
2021/04/15 08:24:59;;;;;;;11.10;10.10;;;;;;;4.12;78.58;101944.00;4988493;28;20601;-78
2021/04/15 08:27:42;;;;;;;10.80;9.90;;;;;;;4.23;77.71;101944.34;4987554;28;20208;-78
2021/04/15 08:30:25;;;;;;;10.60;9.80;;;;;;;4.28;77.12;101953.09;4986717;28;20534;-77
2021/04/15 08:33:04;;;;;;;11.97;9.80;;;;;;;4.40;76.33;101952.59;4986837;28;20582;-78
2021/04/15 08:35:40;;;;;;;10.63;9.67;;;;;;;4.50;76.20;101958.13;4987317;28;20696;-78
2021/04/15 08:38:18;;;;;;;9.87;8.97;;;;;;;4.48;75.55;101957.19;4990369;28;20218;-77
2021/04/15 08:40:53;;;;;;;10.53;9.63;;;;;;;4.49;75.53;101947.72;4992696;28;20211;-78
2021/04/15 08:43:38;;;;;;;10.67;9.67;;;;;;;4.48;76.61;101953.72;4989988;28;20452;-78
2021/04/15 08:46:13;;;;;;;11.27;10.00;;;;;;;4.54;76.42;101951.34;4992247;28;20210;-78
2021/04/15 08:48:48;;;;;;;10.63;9.00;;;;;;;4.73;75.21;101951.03;4991721;28;20210;-78
2021/04/15 08:51:41;;;;;;;9.37;8.47;;;;;;;4.75;74.23;101958.84;4992421;28;20230;-78
2021/04/15 08:54:30;;;;;;;9.47;8.57;;;;;;;4.73;73.98;101960.50;4994423;28;20230;-79
2021/04/15 08:57:00;;;;;;;9.40;8.50;;;;;;;4.92;73.90;101957.63;4994542;28;20298;-79
2021/04/15 08:59:48;;;;;;;9.40;8.50;;;;;;;4.76;72.38;101952.84;4994772;28;20211;-78
2021/04/15 09:02:24;;;;;;;10.07;8.43;;;;;;;4.91;72.09;101948.09;4995079;28;20231;-79
2021/04/15 09:05:03;;;;;;;8.33;7.63;;;;;;;5.31;72.35;101948.34;4994219;28;20635;-78
2021/04/15 09:07:38;;;;;;;10.10;8.57;;;;;;;5.50;71.86;101950.59;4987750;28;20210;-78
2021/04/15 09:10:18;;;;;;;9.53;7.90;;;;;;;5.27;71.22;101956.84;4987372;28;20272;-78
2021/04/15 09:13:08;;;;;;;12.33;8.90;;;;;;;5.52;70.88;101946.31;4986035;28;20546;-78
2021/04/15 09:15:41;;;;;;;9.73;8.40;;;;;;;5.62;69.25;101946.56;4985424;28;20237;-78
2021/04/15 09:18:15;;;;;;;8.70;7.70;;;;;;;5.67;68.55;101952.72;4988594;28;20211;-79
2021/04/15 09:20:46;;;;;;;9.33;8.43;;;;;;;5.74;68.85;101949.47;4988339;28;20214;-78
2021/04/15 09:23:46;;;;;;;7.73;6.97;;;;;;;5.86;65.96;101939.41;4988280;28;20230;-79
2021/04/15 09:26:20;;;;;;;11.47;6.97;;;;;;;6.01;67.16;101944.13;4987202;28;20398;-79
2021/04/15 09:29:03;;;;;;;7.40;6.67;;;;;;;6.18;66.23;101934.13;4986003;28;20207;-77
2021/04/15 09:31:49;;;;;;;9.33;6.83;;;;;;;6.18;63.94;101936.72;4987175;28;20220;-79
2021/04/15 09:34:58;;;;;;;7.53;6.57;;;;;;;6.14;62.60;101929.72;4990452;28;20332;-79
2021/04/15 09:37:43;;;;;;;7.17;6.50;;;;;;;6.36;63.67;101931.09;4990045;28;20237;-78
2021/04/15 09:40:17;;;;;;;10.27;7.40;;;;;;;6.11;62.50;101932.28;4986481;28;20216;-77
2021/04/15 09:42:59;;;;;;;7.87;7.03;;;;;;;6.32;64.85;101930.19;4985583;28;20756;-78
2021/04/15 09:45:45;;;;;;;8.17;6.40;;;;;;;6.56;62.19;101924.66;4990908;28;20703;-78
2021/04/15 09:48:39;;;;;;;8.47;6.70;;;;;;;6.71;61.13;101926.66;4989287;28;20901;-77
2021/04/15 09:51:17;;;;;;;9.20;6.07;;;;;;;7.02;61.19;101918.66;4990509;28;20222;-77
2021/04/15 09:53:51;;;;;;;6.87;5.07;;;;;;;7.21;59.23;101919.88;4987351;28;20246;-77
2021/04/15 09:56:41;;;;;;;7.10;4.17;;;;;;;7.26;56.26;101926.03;4988304;28;20265;-77
2021/04/15 09:59:19;;;;;;;4.70;4.23;;;;;;;7.50;55.08;101907.41;4985037;28;20218;-77
2021/04/15 10:01:50;;;;;;;8.27;3.90;;;;;;;7.54;55.30;101909.22;4985141;28;20241;-77
2021/04/15 10:04:23;;;;;;;4.03;3.60;;;;;;;7.66;54.83;101909.41;4985762;28;20206;-78
2021/04/15 10:06:53;;;;;;;5.73;3.70;;;;;;;7.73;53.78;101908.69;4984733;28;20584;-77
2021/04/15 10:09:27;;;;;;;4.47;3.10;;;;;;;7.91;52.42;101902.91;4986091;28;20219;-77
2021/04/15 10:12:08;;;;;;;5.03;3.50;;;;;;;7.87;50.41;101900.22;4985508;28;20241;-78
2021/04/15 10:14:53;;;;;;;6.43;3.60;;;;;;;8.14;51.74;101900.63;4985861;28;20234;-78
2021/04/15 10:17:37;;;;;;;4.17;3.77;;;;;;;8.34;51.94;101897.44;4985281;28;20580;-77
2021/04/15 10:20:20;;;;;;;3.33;3.07;;;;;;;8.44;50.69;101901.94;4986491;28;20250;-77
2021/04/15 10:23:03;;;;;;;3.87;2.63;;;;;;;8.48;50.24;101895.94;4984945;28;20570;-77
2021/04/15 10:25:32;;;;;;;2.67;2.17;;;;;;;8.54;48.01;101898.63;4985912;28;20208;-77
2021/04/15 10:28:24;;;;;;;1.77;1.20;;;;;;;8.70;47.12;101896.19;4985186;28;20211;-77
2021/04/15 10:31:35;;;;;;;1.13;1.00;;;;;;;8.73;46.00;101891.03;4984930;28;20247;-77
2021/04/15 10:34:17;;;;;;;2.10;1.20;;;;;;;8.87;45.81;101878.19;4984169;28;20313;-78
2021/04/15 10:36:55;;;;;;;1.63;1.50;;;;;;;8.95;46.64;101889.56;4988108;28;20297;-77
2021/04/15 10:40:02;;;;;;;3.87;1.93;;;;;;;8.74;42.85;101885.88;4989310;28;20298;-77
2021/04/15 10:43:08;;;;;;;4.20;1.90;;;;;;;8.92;46.75;101889.53;4987286;28;20250;-77
2021/04/15 10:46:05;;;;;;;2.23;1.30;;;;;;;9.01;44.03;101892.22;4988719;28;20674;-78
2021/04/15 10:48:42;;;;;;;2.53;1.60;;;;;;;8.98;43.91;101887.00;4988198;28;20208;-78
2021/04/15 10:51:19;;;;;;;2.43;1.40;;;;;;;9.01;45.43;101886.16;4989286;28;20210;-78
2021/04/15 10:53:51;;;;;;;2.30;1.70;;;;;;;9.19;45.47;101872.44;4987505;28;20249;-77
2021/04/15 10:56:34;;;;;;;1.77;1.50;;;;;;;9.33;44.42;101878.66;4987926;28;20203;-77
2021/04/15 10:59:08;;;;;;;3.13;2.00;;;;;;;9.42;43.92;101860.50;4988774;28;20648;-77
2021/04/15 11:01:37;;;;;;;1.97;1.50;;;;;;;9.46;44.08;101856.19;4987434;28;20234;-78
2021/04/15 11:04:23;;;;;;;3.20;1.97;;;;;;;9.58;43.63;101858.03;4987787;28;20259;-77
2021/04/15 11:06:52;;;;;;;1.70;1.60;;;;;;;9.46;43.99;101861.41;4985257;28;20353;-77
2021/04/15 11:09:21;;;;;;;1.60;1.40;;;;;;;9.27;45.71;101856.00;4988966;28;20678;-77
2021/04/15 11:11:58;;;;;;;2.80;1.60;;;;;;;9.28;44.34;101856.91;4987858;28;20645;-77
2021/04/15 11:14:27;;;;;;;1.50;1.40;;;;;;;9.11;44.33;101860.19;4989364;28;20231;-77
2021/04/15 11:16:55;;;;;;;2.83;1.70;;;;;;;8.87;44.49;101863.44;4990585;28;20225;-78
2021/04/15 11:19:25;;;;;;;1.77;1.50;;;;;;;8.70;42.99;101867.56;4987679;28;20230;-77
2021/04/15 11:21:53;;;;;;;1.85;1.55;;;;;;;8.52;43.39;101863.91;4984836;28;20843;-77
2021/04/15 11:24:25;;;;;;;3.23;1.83;;;;;;;8.35;45.63;101862.78;4987051;28;20658;-78
2021/04/15 11:26:55;;;;;;;3.00;1.90;;;;;;;8.21;47.70;101854.78;4991127;28;20228;-78
2021/04/15 11:29:24;;;;;;;3.50;1.90;;;;;;;8.11;48.57;101855.53;4992116;28;20693;-79
2021/04/15 11:31:51;;;;;;;3.87;2.27;;;;;;;8.09;48.67;101854.63;4987692;28;20262;-79
2021/04/15 11:34:22;;;;;;;2.97;2.10;;;;;;;8.10;50.41;101851.16;4986667;28;20265;-78
2021/04/15 11:36:59;;;;;;;2.60;1.80;;;;;;;8.13;49.85;101852.06;4998358;28;20585;-80
2021/04/15 11:39:28;;;;;;;2.73;2.10;;;;;;;8.12;48.81;101852.06;4991157;28;20210;-77
2021/04/15 11:41:58;;;;;;;2.50;1.73;;;;;;;8.13;48.47;101857.28;4992080;28;20720;-82
2021/04/15 11:44:34;;;;;;;1.93;1.80;;;;;;;8.16;47.69;101852.09;4991635;28;20203;-80
2021/04/15 11:47:04;;;;;;;2.30;1.80;;;;;;;8.18;48.38;101848.66;4989253;28;20211;-78
2021/04/15 11:49:33;;;;;;;2.07;1.87;;;;;;;8.29;48.80;101840.16;4989258;28;20220;-77
2021/04/15 11:52:05;;;;;;;2.10;2.00;;;;;;;8.27;46.09;101841.88;4988867;28;20236;-77
2021/04/15 11:54:33;;;;;;;2.77;2.30;;;;;;;8.29;48.68;101837.56;4986680;28;20836;-77
2021/04/15 11:57:21;;;;;;;2.40;2.17;;;;;;;8.25;47.93;101843.56;4990696;28;20210;-80
2021/04/15 12:00:05;;;;;;;2.90;2.10;;;;;;;8.32;47.67;101844.50;4990109;28;20865;-77
2021/04/15 12:02:42;;;;;;;2.13;1.93;;;;;;;8.34;47.40;101840.19;4993273;28;20234;-78